sensor_id;sensor_type;location;lat;lon;timestamp;P1;durP1;ratioP1;P2;durP2;ratioP2
36475;SDS011;56615;42.682;23.364;2023-05-10T00:00:58;7.75;;;5.13;;
36475;SDS011;56615;42.682;23.364;2023-05-10T00:03:24;9.43;;;6.15;;
36475;SDS011;56615;42.682;23.364;2023-05-10T00:09:17;11.32;;;6.43;;
36475;SDS011;56615;42.682;23.364;2023-05-10T00:12:11;10.07;;;6.75;;
36475;SDS011;56615;42.682;23.364;2023-05-10T00:15:11;9.80;;;6.63;;
36475;SDS011;56615;42.682;23.364;2023-05-10T00:18:03;11.95;;;7.40;;
36475;SDS011;56615;42.682;23.364;2023-05-10T00:20:30;9.98;;;6.90;;
36475;SDS011;56615;42.682;23.364;2023-05-10T00:23:04;10.30;;;7.25;;
36475;SDS011;56615;42.682;23.364;2023-05-10T00:25:32;12.02;;;7.65;;
36475;SDS011;56615;42.682;23.364;2023-05-10T00:28:10;11.95;;;7.30;;
36475;SDS011;56615;42.682;23.364;2023-05-10T00:31:21;10.20;;;6.88;;
36475;SDS011;56615;42.682;23.364;2023-05-10T00:34:23;10.65;;;6.95;;
36475;SDS011;56615;42.682;23.364;2023-05-10T00:37:07;11.23;;;7.38;;
36475;SDS011;56615;42.682;23.364;2023-05-10T00:43:11;9.88;;;6.90;;
36475;SDS011;56615;42.682;23.364;2023-05-10T00:45:42;10.52;;;7.07;;
36475;SDS011;56615;42.682;23.364;2023-05-10T00:51:39;11.70;;;7.82;;
36475;SDS011;56615;42.682;23.364;2023-05-10T00:54:07;11.48;;;7.18;;
36475;SDS011;56615;42.682;23.364;2023-05-10T00:56:42;10.73;;;7.60;;
36475;SDS011;56615;42.682;23.364;2023-05-10T01:01:57;9.60;;;7.25;;
36475;SDS011;56615;42.682;23.364;2023-05-10T01:10:53;9.50;;;6.70;;
36475;SDS011;56615;42.682;23.364;2023-05-10T01:16:49;8.18;;;5.50;;
36475;SDS011;56615;42.682;23.364;2023-05-10T01:19:22;10.48;;;6.00;;
36475;SDS011;56615;42.682;23.364;2023-05-10T01:34:42;8.10;;;5.88;;
36475;SDS011;56615;42.682;23.364;2023-05-10T01:37:57;8.07;;;5.50;;
36475;SDS011;56615;42.682;23.364;2023-05-10T01:40:48;8.13;;;5.05;;
36475;SDS011;56615;42.682;23.364;2023-05-10T01:46:48;8.05;;;5.65;;
36475;SDS011;56615;42.682;23.364;2023-05-10T01:49:57;8.88;;;4.97;;
36475;SDS011;56615;42.682;23.364;2023-05-10T01:52:26;8.50;;;5.25;;
36475;SDS011;56615;42.682;23.364;2023-05-10T01:55:05;7.25;;;4.68;;
36475;SDS011;56615;42.682;23.364;2023-05-10T02:00:46;6.57;;;4.78;;
36475;SDS011;56615;42.682;23.364;2023-05-10T02:03:35;6.82;;;4.90;;
36475;SDS011;56615;42.682;23.364;2023-05-10T02:06:05;8.10;;;5.35;;
36475;SDS011;56615;42.682;23.364;2023-05-10T02:08:42;8.55;;;5.25;;
36475;SDS011;56615;42.682;23.364;2023-05-10T02:11:08;7.70;;;5.40;;
36475;SDS011;56615;42.682;23.364;2023-05-10T02:13:53;11.00;;;5.90;;
36475;SDS011;56615;42.682;23.364;2023-05-10T02:16:26;8.00;;;5.72;;
36475;SDS011;56615;42.682;23.364;2023-05-10T02:19:06;9.35;;;5.65;;
36475;SDS011;56615;42.682;23.364;2023-05-10T02:21:41;10.77;;;5.80;;
36475;SDS011;56615;42.682;23.364;2023-05-10T02:24:10;8.15;;;5.30;;
36475;SDS011;56615;42.682;23.364;2023-05-10T02:26:43;8.90;;;5.22;;
36475;SDS011;56615;42.682;23.364;2023-05-10T02:29:17;9.35;;;5.40;;
36475;SDS011;56615;42.682;23.364;2023-05-10T02:31:46;7.85;;;5.50;;
36475;SDS011;56615;42.682;23.364;2023-05-10T02:34:12;8.73;;;5.00;;
36475;SDS011;56615;42.682;23.364;2023-05-10T02:36:40;8.20;;;5.00;;
36475;SDS011;56615;42.682;23.364;2023-05-10T02:42:38;9.57;;;5.38;;
36475;SDS011;56615;42.682;23.364;2023-05-10T02:45:11;8.35;;;5.40;;
36475;SDS011;56615;42.682;23.364;2023-05-10T02:47:40;9.02;;;5.25;;
36475;SDS011;56615;42.682;23.364;2023-05-10T02:50:06;8.00;;;4.95;;
36475;SDS011;56615;42.682;23.364;2023-05-10T02:52:49;10.45;;;4.55;;
36475;SDS011;56615;42.682;23.364;2023-05-10T02:55:31;9.90;;;5.25;;
36475;SDS011;56615;42.682;23.364;2023-05-10T02:58:03;12.25;;;4.93;;
36475;SDS011;56615;42.682;23.364;2023-05-10T03:00:33;9.20;;;5.00;;
36475;SDS011;56615;42.682;23.364;2023-05-10T03:03:04;8.65;;;5.15;;
36475;SDS011;56615;42.682;23.364;2023-05-10T03:06:02;9.20;;;4.75;;
36475;SDS011;56615;42.682;23.364;2023-05-10T03:08:55;9.75;;;5.18;;
36475;SDS011;56615;42.682;23.364;2023-05-10T03:11:43;11.95;;;5.15;;
36475;SDS011;56615;42.682;23.364;2023-05-10T03:15:13;9.35;;;4.88;;
36475;SDS011;56615;42.682;23.364;2023-05-10T03:18:26;9.00;;;5.35;;
36475;SDS011;56615;42.682;23.364;2023-05-10T03:21:33;9.43;;;5.40;;
36475;SDS011;56615;42.682;23.364;2023-05-10T03:24:33;10.38;;;5.68;;
36475;SDS011;56615;42.682;23.364;2023-05-10T03:27:00;8.63;;;5.43;;
36475;SDS011;56615;42.682;23.364;2023-05-10T03:29:30;9.73;;;5.55;;
36475;SDS011;56615;42.682;23.364;2023-05-10T03:32:10;9.88;;;4.95;;
36475;SDS011;56615;42.682;23.364;2023-05-10T03:34:45;9.65;;;4.85;;
36475;SDS011;56615;42.682;23.364;2023-05-10T03:37:14;7.55;;;4.90;;
36475;SDS011;56615;42.682;23.364;2023-05-10T03:42:29;9.77;;;5.22;;
36475;SDS011;56615;42.682;23.364;2023-05-10T03:45:05;10.18;;;5.45;;
36475;SDS011;56615;42.682;23.364;2023-05-10T03:47:42;9.50;;;5.30;;
36475;SDS011;56615;42.682;23.364;2023-05-10T03:50:15;9.93;;;5.45;;
36475;SDS011;56615;42.682;23.364;2023-05-10T03:52:45;9.75;;;5.28;;
36475;SDS011;56615;42.682;23.364;2023-05-10T03:55:11;10.30;;;5.30;;
36475;SDS011;56615;42.682;23.364;2023-05-10T03:57:37;9.50;;;5.15;;
36475;SDS011;56615;42.682;23.364;2023-05-10T04:00:14;9.75;;;5.15;;
36475;SDS011;56615;42.682;23.364;2023-05-10T04:02:44;10.75;;;5.13;;
36475;SDS011;56615;42.682;23.364;2023-05-10T04:05:21;12.43;;;5.80;;
36475;SDS011;56615;42.682;23.364;2023-05-10T04:07:49;10.70;;;5.80;;
36475;SDS011;56615;42.682;23.364;2023-05-10T04:10:22;8.75;;;5.55;;
36475;SDS011;56615;42.682;23.364;2023-05-10T04:12:51;10.38;;;5.13;;
36475;SDS011;56615;42.682;23.364;2023-05-10T04:15:23;9.35;;;5.97;;
36475;SDS011;56615;42.682;23.364;2023-05-10T04:17:49;9.07;;;5.75;;
36475;SDS011;56615;42.682;23.364;2023-05-10T04:20:15;12.48;;;5.65;;
36475;SDS011;56615;42.682;23.364;2023-05-10T04:22:44;9.68;;;5.40;;
36475;SDS011;56615;42.682;23.364;2023-05-10T04:25:11;13.70;;;5.20;;
36475;SDS011;56615;42.682;23.364;2023-05-10T04:27:40;11.23;;;5.68;;
36475;SDS011;56615;42.682;23.364;2023-05-10T04:30:07;9.75;;;5.50;;
36475;SDS011;56615;42.682;23.364;2023-05-10T04:32:35;10.23;;;5.32;;
36475;SDS011;56615;42.682;23.364;2023-05-10T04:35:06;8.63;;;5.32;;
36475;SDS011;56615;42.682;23.364;2023-05-10T04:37:46;9.60;;;5.45;;
36475;SDS011;56615;42.682;23.364;2023-05-10T04:40:25;8.70;;;5.13;;
36475;SDS011;56615;42.682;23.364;2023-05-10T04:42:52;9.32;;;5.40;;
36475;SDS011;56615;42.682;23.364;2023-05-10T04:45:17;10.68;;;5.55;;
36475;SDS011;56615;42.682;23.364;2023-05-10T04:47:46;7.88;;;4.68;;
36475;SDS011;56615;42.682;23.364;2023-05-10T04:50:17;9.23;;;5.30;;
36475;SDS011;56615;42.682;23.364;2023-05-10T04:52:49;8.20;;;5.05;;
36475;SDS011;56615;42.682;23.364;2023-05-10T04:55:17;11.32;;;5.85;;
36475;SDS011;56615;42.682;23.364;2023-05-10T04:57:46;9.98;;;5.97;;
36475;SDS011;56615;42.682;23.364;2023-05-10T05:00:24;9.77;;;5.57;;
36475;SDS011;56615;42.682;23.364;2023-05-10T05:02:50;11.48;;;6.15;;
36475;SDS011;56615;42.682;23.364;2023-05-10T05:05:20;12.25;;;6.00;;
36475;SDS011;56615;42.682;23.364;2023-05-10T05:07:59;9.20;;;5.97;;
36475;SDS011;56615;42.682;23.364;2023-05-10T05:10:25;9.80;;;5.95;;
36475;SDS011;56615;42.682;23.364;2023-05-10T05:12:52;10.93;;;6.03;;
36475;SDS011;56615;42.682;23.364;2023-05-10T05:15:21;10.98;;;5.60;;
36475;SDS011;56615;42.682;23.364;2023-05-10T05:17:50;11.80;;;6.10;;
36475;SDS011;56615;42.682;23.364;2023-05-10T05:22:49;12.75;;;6.68;;
36475;SDS011;56615;42.682;23.364;2023-05-10T05:25:16;11.20;;;6.82;;
36475;SDS011;56615;42.682;23.364;2023-05-10T05:27:42;11.73;;;6.85;;
36475;SDS011;56615;42.682;23.364;2023-05-10T05:30:09;11.50;;;6.57;;
36475;SDS011;56615;42.682;23.364;2023-05-10T05:32:43;12.50;;;7.15;;
36475;SDS011;56615;42.682;23.364;2023-05-10T05:35:10;11.90;;;7.20;;
36475;SDS011;56615;42.682;23.364;2023-05-10T05:37:38;17.25;;;7.63;;
36475;SDS011;56615;42.682;23.364;2023-05-10T05:40:07;10.82;;;7.40;;
36475;SDS011;56615;42.682;23.364;2023-05-10T05:42:36;10.15;;;6.45;;
36475;SDS011;56615;42.682;23.364;2023-05-10T05:45:04;11.57;;;6.80;;
36475;SDS011;56615;42.682;23.364;2023-05-10T05:47:49;11.75;;;6.93;;
36475;SDS011;56615;42.682;23.364;2023-05-10T05:50:15;13.82;;;7.78;;
36475;SDS011;56615;42.682;23.364;2023-05-10T05:52:44;12.85;;;7.20;;
36475;SDS011;56615;42.682;23.364;2023-05-10T05:55:13;12.93;;;7.47;;
36475;SDS011;56615;42.682;23.364;2023-05-10T05:57:43;12.68;;;6.72;;
36475;SDS011;56615;42.682;23.364;2023-05-10T06:00:12;12.80;;;7.35;;
36475;SDS011;56615;42.682;23.364;2023-05-10T06:02:39;13.70;;;7.95;;
36475;SDS011;56615;42.682;23.364;2023-05-10T06:05:05;13.52;;;7.60;;
36475;SDS011;56615;42.682;23.364;2023-05-10T06:07:48;13.07;;;7.68;;
36475;SDS011;56615;42.682;23.364;2023-05-10T06:10:20;12.23;;;7.30;;
36475;SDS011;56615;42.682;23.364;2023-05-10T06:12:49;12.45;;;7.07;;
36475;SDS011;56615;42.682;23.364;2023-05-10T06:15:25;12.02;;;7.90;;
36475;SDS011;56615;42.682;23.364;2023-05-10T06:17:56;11.13;;;6.75;;
36475;SDS011;56615;42.682;23.364;2023-05-10T06:20:23;13.63;;;7.80;;
36475;SDS011;56615;42.682;23.364;2023-05-10T06:22:54;12.88;;;6.38;;
36475;SDS011;56615;42.682;23.364;2023-05-10T06:25:19;10.98;;;6.93;;
36475;SDS011;56615;42.682;23.364;2023-05-10T06:27:46;11.73;;;6.65;;
36475;SDS011;56615;42.682;23.364;2023-05-10T06:30:24;12.00;;;6.90;;
36475;SDS011;56615;42.682;23.364;2023-05-10T06:32:56;12.38;;;7.03;;
36475;SDS011;56615;42.682;23.364;2023-05-10T06:35:29;10.68;;;6.57;;
36475;SDS011;56615;42.682;23.364;2023-05-10T06:38:00;11.75;;;7.30;;
36475;SDS011;56615;42.682;23.364;2023-05-10T06:40:40;10.98;;;6.50;;
36475;SDS011;56615;42.682;23.364;2023-05-10T06:43:08;12.10;;;6.55;;
36475;SDS011;56615;42.682;23.364;2023-05-10T06:45:43;12.82;;;6.55;;
36475;SDS011;56615;42.682;23.364;2023-05-10T06:48:08;11.35;;;6.20;;
36475;SDS011;56615;42.682;23.364;2023-05-10T06:50:35;12.18;;;5.97;;
36475;SDS011;56615;42.682;23.364;2023-05-10T06:53:03;12.73;;;6.35;;
36475;SDS011;56615;42.682;23.364;2023-05-10T06:55:32;11.02;;;5.85;;
36475;SDS011;56615;42.682;23.364;2023-05-10T06:57:59;12.00;;;6.53;;
36475;SDS011;56615;42.682;23.364;2023-05-10T07:00:27;10.48;;;6.05;;
36475;SDS011;56615;42.682;23.364;2023-05-10T07:02:59;13.57;;;6.85;;
36475;SDS011;56615;42.682;23.364;2023-05-10T07:05:29;12.32;;;5.82;;
36475;SDS011;56615;42.682;23.364;2023-05-10T07:07:58;10.93;;;6.45;;
36475;SDS011;56615;42.682;23.364;2023-05-10T07:10:38;13.20;;;6.10;;
36475;SDS011;56615;42.682;23.364;2023-05-10T07:13:05;10.55;;;6.30;;
36475;SDS011;56615;42.682;23.364;2023-05-10T07:15:38;11.43;;;6.78;;
36475;SDS011;56615;42.682;23.364;2023-05-10T07:18:07;9.63;;;6.10;;
36475;SDS011;56615;42.682;23.364;2023-05-10T07:20:37;15.20;;;7.03;;
36475;SDS011;56615;42.682;23.364;2023-05-10T07:23:14;12.73;;;6.50;;
36475;SDS011;56615;42.682;23.364;2023-05-10T07:25:47;10.25;;;5.82;;
36475;SDS011;56615;42.682;23.364;2023-05-10T07:28:18;11.60;;;6.13;;
36475;SDS011;56615;42.682;23.364;2023-05-10T07:30:51;13.05;;;6.70;;
36475;SDS011;56615;42.682;23.364;2023-05-10T07:33:16;10.45;;;6.00;;
36475;SDS011;56615;42.682;23.364;2023-05-10T07:35:42;10.68;;;5.80;;
36475;SDS011;56615;42.682;23.364;2023-05-10T07:38:11;11.07;;;6.50;;
36475;SDS011;56615;42.682;23.364;2023-05-10T07:40:38;12.35;;;6.78;;
36475;SDS011;56615;42.682;23.364;2023-05-10T07:43:04;9.75;;;6.45;;
36475;SDS011;56615;42.682;23.364;2023-05-10T07:45:29;12.82;;;7.35;;
36475;SDS011;56615;42.682;23.364;2023-05-10T07:47:55;9.60;;;6.55;;
36475;SDS011;56615;42.682;23.364;2023-05-10T07:50:30;13.05;;;7.20;;
36475;SDS011;56615;42.682;23.364;2023-05-10T07:52:56;14.65;;;8.35;;
36475;SDS011;56615;42.682;23.364;2023-05-10T07:55:24;13.70;;;7.05;;
36475;SDS011;56615;42.682;23.364;2023-05-10T07:57:52;12.82;;;7.32;;
36475;SDS011;56615;42.682;23.364;2023-05-10T08:00:18;12.57;;;7.82;;
36475;SDS011;56615;42.682;23.364;2023-05-10T08:02:44;13.88;;;7.20;;
36475;SDS011;56615;42.682;23.364;2023-05-10T08:05:10;11.25;;;7.28;;
36475;SDS011;56615;42.682;23.364;2023-05-10T08:07:37;12.00;;;7.15;;
36475;SDS011;56615;42.682;23.364;2023-05-10T08:10:03;12.02;;;7.63;;
36475;SDS011;56615;42.682;23.364;2023-05-10T08:12:29;11.48;;;7.18;;
36475;SDS011;56615;42.682;23.364;2023-05-10T08:14:56;11.52;;;7.35;;
36475;SDS011;56615;42.682;23.364;2023-05-10T08:17:22;12.82;;;7.60;;
36475;SDS011;56615;42.682;23.364;2023-05-10T08:19:47;11.38;;;7.32;;
36475;SDS011;56615;42.682;23.364;2023-05-10T08:22:14;14.18;;;7.88;;
36475;SDS011;56615;42.682;23.364;2023-05-10T08:24:40;10.23;;;7.25;;
36475;SDS011;56615;42.682;23.364;2023-05-10T08:27:07;12.25;;;6.65;;
36475;SDS011;56615;42.682;23.364;2023-05-10T08:29:34;12.35;;;6.97;;
36475;SDS011;56615;42.682;23.364;2023-05-10T08:32:00;12.20;;;7.15;;
36475;SDS011;56615;42.682;23.364;2023-05-10T08:34:27;13.90;;;7.40;;
36475;SDS011;56615;42.682;23.364;2023-05-10T08:36:57;11.20;;;7.03;;
36475;SDS011;56615;42.682;23.364;2023-05-10T08:39:23;11.60;;;7.15;;
36475;SDS011;56615;42.682;23.364;2023-05-10T08:41:49;14.52;;;7.22;;
36475;SDS011;56615;42.682;23.364;2023-05-10T08:44:17;11.82;;;7.00;;
36475;SDS011;56615;42.682;23.364;2023-05-10T08:46:46;11.38;;;7.10;;
36475;SDS011;56615;42.682;23.364;2023-05-10T08:49:13;11.02;;;6.93;;
36475;SDS011;56615;42.682;23.364;2023-05-10T08:51:43;12.07;;;7.15;;
36475;SDS011;56615;42.682;23.364;2023-05-10T08:54:12;12.98;;;7.32;;
36475;SDS011;56615;42.682;23.364;2023-05-10T08:56:37;13.15;;;6.68;;
36475;SDS011;56615;42.682;23.364;2023-05-10T08:59:04;12.70;;;7.05;;
36475;SDS011;56615;42.682;23.364;2023-05-10T09:01:30;13.73;;;7.32;;
36475;SDS011;56615;42.682;23.364;2023-05-10T09:03:56;13.93;;;7.72;;
36475;SDS011;56615;42.682;23.364;2023-05-10T09:06:22;11.48;;;7.53;;
36475;SDS011;56615;42.682;23.364;2023-05-10T09:08:48;14.02;;;8.75;;
36475;SDS011;56615;42.682;23.364;2023-05-10T09:11:13;13.15;;;7.57;;
36475;SDS011;56615;42.682;23.364;2023-05-10T09:13:39;13.00;;;7.68;;
36475;SDS011;56615;42.682;23.364;2023-05-10T09:16:04;11.00;;;7.93;;
36475;SDS011;56615;42.682;23.364;2023-05-10T09:18:31;13.20;;;7.68;;
36475;SDS011;56615;42.682;23.364;2023-05-10T09:21:01;11.43;;;7.35;;
36475;SDS011;56615;42.682;23.364;2023-05-10T09:23:26;12.25;;;7.93;;
36475;SDS011;56615;42.682;23.364;2023-05-10T09:26:06;13.60;;;6.90;;
36475;SDS011;56615;42.682;23.364;2023-05-10T09:28:50;11.70;;;7.38;;
36475;SDS011;56615;42.682;23.364;2023-05-10T09:31:18;20.75;;;8.63;;
36475;SDS011;56615;42.682;23.364;2023-05-10T09:33:44;13.35;;;8.30;;
36475;SDS011;56615;42.682;23.364;2023-05-10T09:36:12;12.48;;;7.65;;
36475;SDS011;56615;42.682;23.364;2023-05-10T09:38:51;14.23;;;7.60;;
36475;SDS011;56615;42.682;23.364;2023-05-10T09:41:19;13.65;;;8.18;;
36475;SDS011;56615;42.682;23.364;2023-05-10T09:43:45;10.70;;;7.25;;
36475;SDS011;56615;42.682;23.364;2023-05-10T09:46:11;13.13;;;7.55;;
36475;SDS011;56615;42.682;23.364;2023-05-10T09:48:41;9.77;;;6.68;;
36475;SDS011;56615;42.682;23.364;2023-05-10T09:51:08;10.48;;;6.82;;
36475;SDS011;56615;42.682;23.364;2023-05-10T09:53:34;10.45;;;7.20;;
36475;SDS011;56615;42.682;23.364;2023-05-10T09:55:59;13.82;;;7.90;;
36475;SDS011;56615;42.682;23.364;2023-05-10T09:58:25;12.65;;;7.45;;
36475;SDS011;56615;42.682;23.364;2023-05-10T10:00:51;11.15;;;6.40;;
36475;SDS011;56615;42.682;23.364;2023-05-10T10:03:23;11.68;;;7.45;;
36475;SDS011;56615;42.682;23.364;2023-05-10T10:05:58;11.73;;;6.38;;
36475;SDS011;56615;42.682;23.364;2023-05-10T10:08:26;14.48;;;6.47;;
36475;SDS011;56615;42.682;23.364;2023-05-10T10:10:51;13.00;;;6.55;;
36475;SDS011;56615;42.682;23.364;2023-05-10T10:13:17;8.27;;;5.80;;
36475;SDS011;56615;42.682;23.364;2023-05-10T10:15:42;14.93;;;6.68;;
36475;SDS011;56615;42.682;23.364;2023-05-10T10:18:16;15.73;;;6.30;;
36475;SDS011;56615;42.682;23.364;2023-05-10T10:20:42;11.18;;;6.57;;
36475;SDS011;56615;42.682;23.364;2023-05-10T10:23:08;11.55;;;6.45;;
36475;SDS011;56615;42.682;23.364;2023-05-10T10:25:34;10.55;;;5.78;;
36475;SDS011;56615;42.682;23.364;2023-05-10T10:28:07;12.15;;;6.15;;
36475;SDS011;56615;42.682;23.364;2023-05-10T10:30:49;11.85;;;5.60;;
36475;SDS011;56615;42.682;23.364;2023-05-10T10:36:24;8.88;;;5.07;;
36475;SDS011;56615;42.682;23.364;2023-05-10T10:38:57;9.88;;;5.70;;
36475;SDS011;56615;42.682;23.364;2023-05-10T10:41:29;12.23;;;6.05;;
36475;SDS011;56615;42.682;23.364;2023-05-10T10:47:21;9.07;;;5.75;;
36475;SDS011;56615;42.682;23.364;2023-05-10T10:50:06;10.85;;;6.20;;
36475;SDS011;56615;42.682;23.364;2023-05-10T10:52:36;10.43;;;5.90;;
36475;SDS011;56615;42.682;23.364;2023-05-10T10:55:17;9.30;;;5.78;;
36475;SDS011;56615;42.682;23.364;2023-05-10T10:57:55;8.70;;;5.90;;
36475;SDS011;56615;42.682;23.364;2023-05-10T11:00:36;8.63;;;6.10;;
36475;SDS011;56615;42.682;23.364;2023-05-10T11:03:09;12.85;;;6.97;;
36475;SDS011;56615;42.682;23.364;2023-05-10T11:09:07;9.77;;;6.18;;
36475;SDS011;56615;42.682;23.364;2023-05-10T11:11:51;11.52;;;5.63;;
36475;SDS011;56615;42.682;23.364;2023-05-10T11:14:33;11.88;;;6.38;;
36475;SDS011;56615;42.682;23.364;2023-05-10T11:17:24;10.52;;;6.00;;
36475;SDS011;56615;42.682;23.364;2023-05-10T11:20:09;10.32;;;6.07;;
36475;SDS011;56615;42.682;23.364;2023-05-10T11:22:55;12.13;;;6.22;;
36475;SDS011;56615;42.682;23.364;2023-05-10T11:25:26;11.35;;;6.88;;
36475;SDS011;56615;42.682;23.364;2023-05-10T11:28:05;9.65;;;5.60;;
36475;SDS011;56615;42.682;23.364;2023-05-10T11:34:22;8.93;;;5.78;;
36475;SDS011;56615;42.682;23.364;2023-05-10T11:36:53;10.40;;;6.18;;
36475;SDS011;56615;42.682;23.364;2023-05-10T11:39:25;10.10;;;6.40;;
36475;SDS011;56615;42.682;23.364;2023-05-10T11:45:24;11.82;;;6.40;;
36475;SDS011;56615;42.682;23.364;2023-05-10T11:48:05;9.40;;;5.60;;
36475;SDS011;56615;42.682;23.364;2023-05-10T11:50:57;11.55;;;6.03;;
36475;SDS011;56615;42.682;23.364;2023-05-10T11:57:07;10.82;;;6.35;;
36475;SDS011;56615;42.682;23.364;2023-05-10T11:59:45;12.60;;;6.20;;
36475;SDS011;56615;42.682;23.364;2023-05-10T12:02:37;10.15;;;6.15;;
36475;SDS011;56615;42.682;23.364;2023-05-10T12:05:03;10.32;;;6.50;;
36475;SDS011;56615;42.682;23.364;2023-05-10T12:07:30;12.02;;;6.72;;
36475;SDS011;56615;42.682;23.364;2023-05-10T12:10:10;11.10;;;6.65;;
36475;SDS011;56615;42.682;23.364;2023-05-10T12:12:46;11.82;;;6.30;;
36475;SDS011;56615;42.682;23.364;2023-05-10T12:15:20;10.07;;;6.45;;
36475;SDS011;56615;42.682;23.364;2023-05-10T12:17:47;11.80;;;6.50;;
36475;SDS011;56615;42.682;23.364;2023-05-10T12:20:19;13.52;;;6.40;;
36475;SDS011;56615;42.682;23.364;2023-05-10T12:23:04;12.48;;;7.18;;
36475;SDS011;56615;42.682;23.364;2023-05-10T12:25:35;10.98;;;6.35;;
36475;SDS011;56615;42.682;23.364;2023-05-10T12:28:08;11.07;;;7.15;;
36475;SDS011;56615;42.682;23.364;2023-05-10T12:30:35;10.10;;;6.07;;
36475;SDS011;56615;42.682;23.364;2023-05-10T12:33:02;12.43;;;7.10;;
36475;SDS011;56615;42.682;23.364;2023-05-10T12:39:02;11.52;;;6.53;;
36475;SDS011;56615;42.682;23.364;2023-05-10T12:41:29;11.30;;;6.72;;
36475;SDS011;56615;42.682;23.364;2023-05-10T12:43:55;10.20;;;6.50;;
36475;SDS011;56615;42.682;23.364;2023-05-10T12:46:20;10.15;;;6.57;;
36475;SDS011;56615;42.682;23.364;2023-05-10T12:48:47;10.63;;;6.53;;
36475;SDS011;56615;42.682;23.364;2023-05-10T12:51:20;9.82;;;6.75;;
36475;SDS011;56615;42.682;23.364;2023-05-10T12:53:59;11.02;;;6.47;;
36475;SDS011;56615;42.682;23.364;2023-05-10T12:56:51;11.40;;;6.38;;
36475;SDS011;56615;42.682;23.364;2023-05-10T12:59:16;12.13;;;6.68;;
36475;SDS011;56615;42.682;23.364;2023-05-10T13:01:45;10.95;;;6.47;;
36475;SDS011;56615;42.682;23.364;2023-05-10T13:04:10;11.65;;;6.20;;
36475;SDS011;56615;42.682;23.364;2023-05-10T13:06:36;10.10;;;5.97;;
36475;SDS011;56615;42.682;23.364;2023-05-10T13:09:02;11.15;;;6.47;;
36475;SDS011;56615;42.682;23.364;2023-05-10T13:11:27;17.13;;;6.90;;
36475;SDS011;56615;42.682;23.364;2023-05-10T13:13:54;10.38;;;6.07;;
36475;SDS011;56615;42.682;23.364;2023-05-10T13:16:20;9.55;;;6.13;;
36475;SDS011;56615;42.682;23.364;2023-05-10T13:18:46;10.60;;;5.97;;
36475;SDS011;56615;42.682;23.364;2023-05-10T13:21:13;10.27;;;6.07;;
36475;SDS011;56615;42.682;23.364;2023-05-10T13:23:39;11.02;;;6.20;;
36475;SDS011;56615;42.682;23.364;2023-05-10T13:26:07;9.65;;;5.80;;
36475;SDS011;56615;42.682;23.364;2023-05-10T13:28:33;9.52;;;5.78;;
36475;SDS011;56615;42.682;23.364;2023-05-10T13:31:00;11.63;;;6.15;;
36475;SDS011;56615;42.682;23.364;2023-05-10T13:33:25;12.95;;;5.97;;
36475;SDS011;56615;42.682;23.364;2023-05-10T13:35:51;10.35;;;6.15;;
36475;SDS011;56615;42.682;23.364;2023-05-10T13:38:18;10.05;;;5.85;;
36475;SDS011;56615;42.682;23.364;2023-05-10T13:40:44;10.88;;;6.13;;
36475;SDS011;56615;42.682;23.364;2023-05-10T13:43:09;9.35;;;6.18;;
36475;SDS011;56615;42.682;23.364;2023-05-10T13:45:35;10.15;;;6.00;;
36475;SDS011;56615;42.682;23.364;2023-05-10T13:48:10;10.00;;;6.30;;
36475;SDS011;56615;42.682;23.364;2023-05-10T13:50:38;15.30;;;6.20;;
36475;SDS011;56615;42.682;23.364;2023-05-10T13:53:15;13.23;;;6.22;;
36475;SDS011;56615;42.682;23.364;2023-05-10T13:59:02;11.05;;;6.13;;
36475;SDS011;56615;42.682;23.364;2023-05-10T14:12:15;13.52;;;6.60;;
36475;SDS011;56615;42.682;23.364;2023-05-10T14:15:00;10.38;;;5.75;;
36475;SDS011;56615;42.682;23.364;2023-05-10T14:17:26;12.77;;;6.40;;
36475;SDS011;56615;42.682;23.364;2023-05-10T14:19:55;10.90;;;6.40;;
36475;SDS011;56615;42.682;23.364;2023-05-10T14:22:30;14.32;;;6.78;;
36475;SDS011;56615;42.682;23.364;2023-05-10T14:25:36;11.77;;;6.35;;
36475;SDS011;56615;42.682;23.364;2023-05-10T14:28:06;15.68;;;6.50;;
36475;SDS011;56615;42.682;23.364;2023-05-10T14:30:40;11.30;;;6.22;;
36475;SDS011;56615;42.682;23.364;2023-05-10T14:33:11;13.80;;;7.43;;
36475;SDS011;56615;42.682;23.364;2023-05-10T14:35:40;13.48;;;6.78;;
36475;SDS011;56615;42.682;23.364;2023-05-10T14:38:06;11.43;;;5.90;;
36475;SDS011;56615;42.682;23.364;2023-05-10T14:40:31;11.02;;;6.88;;
36475;SDS011;56615;42.682;23.364;2023-05-10T14:42:58;13.40;;;6.65;;
36475;SDS011;56615;42.682;23.364;2023-05-10T14:45:29;11.00;;;6.53;;
36475;SDS011;56615;42.682;23.364;2023-05-10T14:50:56;11.88;;;6.40;;
36475;SDS011;56615;42.682;23.364;2023-05-10T14:53:47;11.98;;;6.70;;
36475;SDS011;56615;42.682;23.364;2023-05-10T14:56:16;11.15;;;6.30;;
36475;SDS011;56615;42.682;23.364;2023-05-10T14:58:43;14.15;;;6.97;;
36475;SDS011;56615;42.682;23.364;2023-05-10T15:01:17;13.02;;;6.53;;
36475;SDS011;56615;42.682;23.364;2023-05-10T15:04:30;12.38;;;6.72;;
36475;SDS011;56615;42.682;23.364;2023-05-10T15:07:02;11.93;;;7.10;;
36475;SDS011;56615;42.682;23.364;2023-05-10T15:09:28;10.75;;;6.68;;
36475;SDS011;56615;42.682;23.364;2023-05-10T15:11:53;14.25;;;6.97;;
36475;SDS011;56615;42.682;23.364;2023-05-10T15:14:22;12.20;;;7.13;;
36475;SDS011;56615;42.682;23.364;2023-05-10T15:16:58;12.15;;;6.93;;
36475;SDS011;56615;42.682;23.364;2023-05-10T15:20:04;12.05;;;6.60;;
36475;SDS011;56615;42.682;23.364;2023-05-10T15:22:31;11.43;;;7.10;;
36475;SDS011;56615;42.682;23.364;2023-05-10T15:24:57;12.43;;;6.80;;
36475;SDS011;56615;42.682;23.364;2023-05-10T15:27:26;11.30;;;6.60;;
36475;SDS011;56615;42.682;23.364;2023-05-10T15:29:52;13.05;;;6.97;;
36475;SDS011;56615;42.682;23.364;2023-05-10T15:32:19;13.02;;;6.50;;
36475;SDS011;56615;42.682;23.364;2023-05-10T15:38:13;12.50;;;7.03;;
36475;SDS011;56615;42.682;23.364;2023-05-10T15:43:34;14.00;;;6.88;;
36475;SDS011;56615;42.682;23.364;2023-05-10T15:46:12;12.45;;;7.43;;
36475;SDS011;56615;42.682;23.364;2023-05-10T15:48:50;14.23;;;7.88;;
36475;SDS011;56615;42.682;23.364;2023-05-10T15:51:37;12.23;;;7.40;;
36475;SDS011;56615;42.682;23.364;2023-05-10T15:54:05;11.13;;;6.90;;
36475;SDS011;56615;42.682;23.364;2023-05-10T15:57:50;10.20;;;6.63;;
36475;SDS011;56615;42.682;23.364;2023-05-10T16:00:16;13.07;;;6.93;;
36475;SDS011;56615;42.682;23.364;2023-05-10T16:02:41;10.70;;;6.57;;
36475;SDS011;56615;42.682;23.364;2023-05-10T16:05:13;12.10;;;6.15;;
36475;SDS011;56615;42.682;23.364;2023-05-10T16:07:44;14.60;;;6.68;;
36475;SDS011;56615;42.682;23.364;2023-05-10T16:10:10;11.23;;;6.30;;
36475;SDS011;56615;42.682;23.364;2023-05-10T16:12:36;11.32;;;6.20;;
36475;SDS011;56615;42.682;23.364;2023-05-10T16:15:07;10.30;;;6.70;;
36475;SDS011;56615;42.682;23.364;2023-05-10T16:17:55;13.50;;;7.10;;
36475;SDS011;56615;42.682;23.364;2023-05-10T16:20:40;12.32;;;6.57;;
36475;SDS011;56615;42.682;23.364;2023-05-10T16:23:08;12.05;;;6.65;;
36475;SDS011;56615;42.682;23.364;2023-05-10T16:25:34;11.77;;;6.80;;
36475;SDS011;56615;42.682;23.364;2023-05-10T16:27:59;13.90;;;7.40;;
36475;SDS011;56615;42.682;23.364;2023-05-10T16:30:26;13.98;;;7.70;;
36475;SDS011;56615;42.682;23.364;2023-05-10T16:33:10;14.25;;;7.18;;
36475;SDS011;56615;42.682;23.364;2023-05-10T16:35:59;10.77;;;6.55;;